sensor_id;sensor_type;location;lat;lon;timestamp;pressure;altitude;pressure_sealevel;temperature;humidity
3260;BME280;68938;48.150;14.004;2023-07-24T00:01:38;97555.50;;;24.28;55.68
3260;BME280;68938;48.150;14.004;2023-07-24T00:04:06;97555.25;;;24.21;55.45
3260;BME280;68938;48.150;14.004;2023-07-24T00:06:34;97551.94;;;24.19;56.11
3260;BME280;68938;48.150;14.004;2023-07-24T00:09:00;97546.34;;;24.14;55.92
3260;BME280;68938;48.150;14.004;2023-07-24T00:11:27;97540.25;;;24.13;55.80
3260;BME280;68938;48.150;14.004;2023-07-24T00:13:54;97537.94;;;24.10;56.06
3260;BME280;68938;48.150;14.004;2023-07-24T00:16:21;97534.91;;;24.05;56.84
3260;BME280;68938;48.150;14.004;2023-07-24T00:18:49;97533.41;;;24.03;56.66
3260;BME280;68938;48.150;14.004;2023-07-24T00:21:16;97525.53;;;24.03;56.37
3260;BME280;68938;48.150;14.004;2023-07-24T00:23:43;97527.34;;;24.02;56.36
3260;BME280;68938;48.150;14.004;2023-07-24T00:26:11;97520.59;;;24.00;56.35
3260;BME280;68938;48.150;14.004;2023-07-24T00:28:40;97524.19;;;23.99;56.87
3260;BME280;68938;48.150;14.004;2023-07-24T00:31:07;97516.63;;;23.96;56.49
3260;BME280;68938;48.150;14.004;2023-07-24T00:33:35;97511.94;;;23.89;57.44
3260;BME280;68938;48.150;14.004;2023-07-24T00:36:02;97509.34;;;23.89;56.55
3260;BME280;68938;48.150;14.004;2023-07-24T00:38:30;97509.53;;;23.78;57.54
3260;BME280;68938;48.150;14.004;2023-07-24T00:40:57;97505.56;;;23.74;57.27
3260;BME280;68938;48.150;14.004;2023-07-24T00:43:25;97501.13;;;23.75;57.14
3260;BME280;68938;48.150;14.004;2023-07-24T00:45:54;97495.38;;;23.71;57.10
3260;BME280;68938;48.150;14.004;2023-07-24T00:48:23;97498.69;;;23.73;57.50
3260;BME280;68938;48.150;14.004;2023-07-24T00:50:50;97504.72;;;23.74;57.31
3260;BME280;68938;48.150;14.004;2023-07-24T00:53:19;97498.38;;;23.76;57.24
3260;BME280;68938;48.150;14.004;2023-07-24T00:55:47;97491.78;;;23.72;57.24
3260;BME280;68938;48.150;14.004;2023-07-24T00:58:16;97490.13;;;23.71;57.39
3260;BME280;68938;48.150;14.004;2023-07-24T01:00:45;97472.78;;;23.70;57.64
3260;BME280;68938;48.150;14.004;2023-07-24T01:03:13;97470.41;;;23.67;56.58
3260;BME280;68938;48.150;14.004;2023-07-24T01:05:41;97468.47;;;23.69;57.06
3260;BME280;68938;48.150;14.004;2023-07-24T01:08:08;97466.03;;;23.68;57.25
3260;BME280;68938;48.150;14.004;2023-07-24T01:10:36;97469.59;;;23.67;57.35
3260;BME280;68938;48.150;14.004;2023-07-24T01:13:15;97471.50;;;23.64;57.26
3260;BME280;68938;48.150;14.004;2023-07-24T01:18:24;97455.19;;;23.53;58.17
3260;BME280;68938;48.150;14.004;2023-07-24T01:20:55;97462.06;;;23.54;58.12
3260;BME280;68938;48.150;14.004;2023-07-24T01:26:08;97453.81;;;23.49;57.88
3260;BME280;68938;48.150;14.004;2023-07-24T01:28:36;97457.66;;;23.45;58.44
3260;BME280;68938;48.150;14.004;2023-07-24T01:31:02;97455.34;;;23.41;58.81
3260;BME280;68938;48.150;14.004;2023-07-24T01:33:30;97454.50;;;23.41;58.78
3260;BME280;68938;48.150;14.004;2023-07-24T01:36:00;97457.28;;;23.39;58.97
3260;BME280;68938;48.150;14.004;2023-07-24T01:38:32;97456.06;;;23.34;59.24
3260;BME280;68938;48.150;14.004;2023-07-24T01:41:02;97458.28;;;23.29;59.49
3260;BME280;68938;48.150;14.004;2023-07-24T01:43:30;97454.28;;;23.25;59.62
3260;BME280;68938;48.150;14.004;2023-07-24T01:45:58;97453.06;;;23.19;59.69
3260;BME280;68938;48.150;14.004;2023-07-24T01:48:26;97458.72;;;23.14;59.48
3260;BME280;68938;48.150;14.004;2023-07-24T01:50:53;97449.38;;;23.12;59.47
3260;BME280;68938;48.150;14.004;2023-07-24T01:53:20;97449.66;;;23.09;59.44
3260;BME280;68938;48.150;14.004;2023-07-24T01:55:48;97447.31;;;23.06;60.20
3260;BME280;68938;48.150;14.004;2023-07-24T01:58:15;97441.41;;;23.04;59.98
3260;BME280;68938;48.150;14.004;2023-07-24T02:00:42;97441.56;;;23.02;60.25
3260;BME280;68938;48.150;14.004;2023-07-24T02:03:09;97434.53;;;23.03;60.30
3260;BME280;68938;48.150;14.004;2023-07-24T02:05:37;97430.00;;;22.95;60.93
3260;BME280;68938;48.150;14.004;2023-07-24T02:08:04;97427.38;;;22.95;60.73
3260;BME280;68938;48.150;14.004;2023-07-24T02:10:36;97430.00;;;22.95;60.14
3260;BME280;68938;48.150;14.004;2023-07-24T02:13:03;97427.50;;;22.93;60.67
3260;BME280;68938;48.150;14.004;2023-07-24T02:15:31;97419.78;;;22.92;60.59
3260;BME280;68938;48.150;14.004;2023-07-24T02:18:00;97428.88;;;22.88;60.61
3260;BME280;68938;48.150;14.004;2023-07-24T02:20:29;97423.66;;;22.78;61.05
3260;BME280;68938;48.150;14.004;2023-07-24T02:22:58;97424.22;;;22.72;61.42
3260;BME280;68938;48.150;14.004;2023-07-24T02:25:28;97437.44;;;22.70;60.91
3260;BME280;68938;48.150;14.004;2023-07-24T02:27:56;97434.28;;;22.67;60.81
3260;BME280;68938;48.150;14.004;2023-07-24T02:30:24;97435.81;;;22.60;61.51
3260;BME280;68938;48.150;14.004;2023-07-24T02:32:51;97428.34;;;22.55;62.32
3260;BME280;68938;48.150;14.004;2023-07-24T02:35:18;97423.56;;;22.51;62.48
3260;BME280;68938;48.150;14.004;2023-07-24T02:37:47;97429.59;;;22.51;61.88
3260;BME280;68938;48.150;14.004;2023-07-24T02:40:14;97429.06;;;22.47;62.14
3260;BME280;68938;48.150;14.004;2023-07-24T02:42:42;97440.59;;;22.45;61.85
3260;BME280;68938;48.150;14.004;2023-07-24T02:45:10;97433.31;;;22.39;62.02
3260;BME280;68938;48.150;14.004;2023-07-24T02:47:37;97435.38;;;22.35;62.69
3260;BME280;68938;48.150;14.004;2023-07-24T02:50:05;97423.44;;;22.33;62.73
3260;BME280;68938;48.150;14.004;2023-07-24T02:52:33;97425.59;;;22.28;62.52
3260;BME280;68938;48.150;14.004;2023-07-24T02:55:00;97426.03;;;22.23;62.60
3260;BME280;68938;48.150;14.004;2023-07-24T02:57:27;97420.38;;;22.18;62.43
3260;BME280;68938;48.150;14.004;2023-07-24T02:59:54;97415.28;;;22.16;62.52
3260;BME280;68938;48.150;14.004;2023-07-24T03:02:22;97418.72;;;22.17;62.83
3260;BME280;68938;48.150;14.004;2023-07-24T03:04:50;97421.56;;;22.14;62.26
3260;BME280;68938;48.150;14.004;2023-07-24T03:07:18;97413.75;;;22.14;62.84
3260;BME280;68938;48.150;14.004;2023-07-24T03:09:47;97415.53;;;22.13;62.34
3260;BME280;68938;48.150;14.004;2023-07-24T03:12:14;97407.16;;;22.10;62.96
3260;BME280;68938;48.150;14.004;2023-07-24T03:14:41;97409.22;;;22.06;63.27
3260;BME280;68938;48.150;14.004;2023-07-24T03:17:08;97400.00;;;22.02;62.92
3260;BME280;68938;48.150;14.004;2023-07-24T03:19:38;97390.75;;;21.98;62.69
3260;BME280;68938;48.150;14.004;2023-07-24T03:22:05;97392.00;;;21.94;62.89
3260;BME280;68938;48.150;14.004;2023-07-24T03:24:35;97397.22;;;21.94;62.51
3260;BME280;68938;48.150;14.004;2023-07-24T03:27:03;97393.94;;;21.92;63.09
3260;BME280;68938;48.150;14.004;2023-07-24T03:29:30;97394.19;;;21.89;62.74
3260;BME280;68938;48.150;14.004;2023-07-24T03:31:57;97393.38;;;21.88;62.60
3260;BME280;68938;48.150;14.004;2023-07-24T03:34:27;97399.53;;;21.87;62.87
3260;BME280;68938;48.150;14.004;2023-07-24T03:36:54;97397.47;;;21.81;63.52
3260;BME280;68938;48.150;14.004;2023-07-24T03:39:21;97384.72;;;21.78;63.52
3260;BME280;68938;48.150;14.004;2023-07-24T03:41:48;97382.34;;;21.75;63.61
3260;BME280;68938;48.150;14.004;2023-07-24T03:44:16;97387.84;;;21.72;64.04
3260;BME280;68938;48.150;14.004;2023-07-24T03:46:43;97388.66;;;21.72;63.00
3260;BME280;68938;48.150;14.004;2023-07-24T03:49:10;97392.09;;;21.73;63.21
3260;BME280;68938;48.150;14.004;2023-07-24T03:51:37;97389.38;;;21.74;63.17
3260;BME280;68938;48.150;14.004;2023-07-24T03:54:05;97389.22;;;21.76;63.14
3260;BME280;68938;48.150;14.004;2023-07-24T03:56:32;97394.72;;;21.73;63.44
3260;BME280;68938;48.150;14.004;2023-07-24T03:59:00;97392.91;;;21.73;63.49
3260;BME280;68938;48.150;14.004;2023-07-24T04:01:27;97397.47;;;21.71;63.91
3260;BME280;68938;48.150;14.004;2023-07-24T04:03:57;97395.38;;;21.65;63.87
3260;BME280;68938;48.150;14.004;2023-07-24T04:06:26;97402.25;;;21.66;64.25
3260;BME280;68938;48.150;14.004;2023-07-24T04:08:54;97402.25;;;21.66;64.18
3260;BME280;68938;48.150;14.004;2023-07-24T04:11:21;97396.47;;;21.63;64.28
3260;BME280;68938;48.150;14.004;2023-07-24T04:13:48;97399.91;;;21.63;64.51
3260;BME280;68938;48.150;14.004;2023-07-24T04:16:17;97408.97;;;21.59;64.69
3260;BME280;68938;48.150;14.004;2023-07-24T04:18:44;97396.88;;;21.58;64.84
3260;BME280;68938;48.150;14.004;2023-07-24T04:21:11;97416.78;;;21.59;64.69
3260;BME280;68938;48.150;14.004;2023-07-24T04:23:38;97408.25;;;21.57;64.86
3260;BME280;68938;48.150;14.004;2023-07-24T04:26:05;97411.31;;;21.62;64.65
3260;BME280;68938;48.150;14.004;2023-07-24T04:28:34;97414.47;;;21.66;65.14
3260;BME280;68938;48.150;14.004;2023-07-24T04:31:02;97413.66;;;21.65;64.50
3260;BME280;68938;48.150;14.004;2023-07-24T04:33:29;97418.44;;;21.60;64.79
3260;BME280;68938;48.150;14.004;2023-07-24T04:35:59;97414.59;;;21.55;64.97
3260;BME280;68938;48.150;14.004;2023-07-24T04:38:28;97406.50;;;21.58;64.79
3260;BME280;68938;48.150;14.004;2023-07-24T04:40:56;97405.38;;;21.60;65.51
3260;BME280;68938;48.150;14.004;2023-07-24T04:43:23;97408.56;;;21.64;65.29
3260;BME280;68938;48.150;14.004;2023-07-24T04:45:50;97421.75;;;21.62;65.36
3260;BME280;68938;48.150;14.004;2023-07-24T04:48:17;97427.22;;;21.59;65.50
3260;BME280;68938;48.150;14.004;2023-07-24T04:50:46;97419.44;;;21.69;65.18
3260;BME280;68938;48.150;14.004;2023-07-24T04:53:13;97415.34;;;21.76;65.06
3260;BME280;68938;48.150;14.004;2023-07-24T04:55:45;97423.44;;;21.83;65.20
3260;BME280;68938;48.150;14.004;2023-07-24T04:58:15;97429.22;;;21.86;65.12
3260;BME280;68938;48.150;14.004;2023-07-24T05:00:42;97429.94;;;21.88;65.21
3260;BME280;68938;48.150;14.004;2023-07-24T05:03:09;97428.69;;;21.92;64.94
3260;BME280;68938;48.150;14.004;2023-07-24T05:05:37;97428.44;;;21.95;65.33
3260;BME280;68938;48.150;14.004;2023-07-24T05:08:09;97428.72;;;22.02;65.68
3260;BME280;68938;48.150;14.004;2023-07-24T05:10:38;97431.88;;;22.06;65.31
3260;BME280;68938;48.150;14.004;2023-07-24T05:13:05;97435.88;;;22.10;65.01
3260;BME280;68938;48.150;14.004;2023-07-24T05:15:32;97440.00;;;22.12;64.85
3260;BME280;68938;48.150;14.004;2023-07-24T05:17:59;97456.34;;;22.14;64.71
3260;BME280;68938;48.150;14.004;2023-07-24T05:20:27;97458.75;;;22.17;64.89
3260;BME280;68938;48.150;14.004;2023-07-24T05:22:56;97455.72;;;22.22;64.11
3260;BME280;68938;48.150;14.004;2023-07-24T05:25:24;97454.88;;;22.21;64.90
3260;BME280;68938;48.150;14.004;2023-07-24T05:27:52;97449.94;;;22.18;65.10
3260;BME280;68938;48.150;14.004;2023-07-24T05:30:23;97447.59;;;22.25;64.96
3260;BME280;68938;48.150;14.004;2023-07-24T05:32:50;97455.72;;;22.32;64.61
3260;BME280;68938;48.150;14.004;2023-07-24T05:35:20;97468.25;;;22.38;64.50
3260;BME280;68938;48.150;14.004;2023-07-24T05:37:47;97468.94;;;22.40;64.87
3260;BME280;68938;48.150;14.004;2023-07-24T05:40:16;97471.41;;;22.41;64.88
3260;BME280;68938;48.150;14.004;2023-07-24T05:42:43;97475.97;;;22.39;65.69
3260;BME280;68938;48.150;14.004;2023-07-24T05:45:10;97476.53;;;22.43;65.37
3260;BME280;68938;48.150;14.004;2023-07-24T05:47:37;97469.91;;;22.58;64.40
3260;BME280;68938;48.150;14.004;2023-07-24T05:50:05;97456.56;;;22.71;64.46
3260;BME280;68938;48.150;14.004;2023-07-24T05:52:32;97461.66;;;22.82;64.82
3260;BME280;68938;48.150;14.004;2023-07-24T05:55:00;97457.13;;;22.94;63.85
3260;BME280;68938;48.150;14.004;2023-07-24T05:57:28;97466.47;;;22.97;63.41
3260;BME280;68938;48.150;14.004;2023-07-24T05:59:55;97488.66;;;22.92;63.86
3260;BME280;68938;48.150;14.004;2023-07-24T06:02:22;97488.53;;;22.94;63.59
3260;BME280;68938;48.150;14.004;2023-07-24T06:04:49;97491.81;;;23.06;63.93
3260;BME280;68938;48.150;14.004;2023-07-24T06:07:19;97488.31;;;23.25;63.74
3260;BME280;68938;48.150;14.004;2023-07-24T06:09:48;97483.72;;;23.46;63.84
3260;BME280;68938;48.150;14.004;2023-07-24T06:12:15;97471.00;;;23.51;63.02
3260;BME280;68938;48.150;14.004;2023-07-24T06:14:43;97463.13;;;23.71;62.74
3260;BME280;68938;48.150;14.004;2023-07-24T06:17:11;97468.09;;;23.92;63.09
3260;BME280;68938;48.150;14.004;2023-07-24T06:19:38;97458.63;;;24.08;61.77
3260;BME280;68938;48.150;14.004;2023-07-24T06:22:05;97467.88;;;24.30;61.13
3260;BME280;68938;48.150;14.004;2023-07-24T06:24:34;97464.34;;;24.40;60.87
3260;BME280;68938;48.150;14.004;2023-07-24T06:27:01;97447.53;;;24.60;60.94
3260;BME280;68938;48.150;14.004;2023-07-24T06:29:29;97428.84;;;24.81;59.86
3260;BME280;68938;48.150;14.004;2023-07-24T06:31:59;97448.63;;;24.93;58.63
3260;BME280;68938;48.150;14.004;2023-07-24T06:34:26;97436.28;;;25.12;57.67
3260;BME280;68938;48.150;14.004;2023-07-24T06:36:53;97421.66;;;25.35;57.29
3260;BME280;68938;48.150;14.004;2023-07-24T06:39:27;97418.94;;;25.53;58.00
3260;BME280;68938;48.150;14.004;2023-07-24T06:41:54;97422.13;;;25.65;56.53
3260;BME280;68938;48.150;14.004;2023-07-24T06:44:23;97413.50;;;25.81;56.90
3260;BME280;68938;48.150;14.004;2023-07-24T06:46:51;97412.75;;;26.05;55.80
3260;BME280;68938;48.150;14.004;2023-07-24T06:49:19;97418.22;;;26.28;55.80
3260;BME280;68938;48.150;14.004;2023-07-24T06:51:46;97406.22;;;26.41;54.30
3260;BME280;68938;48.150;14.004;2023-07-24T06:54:13;97402.47;;;26.52;53.33
3260;BME280;68938;48.150;14.004;2023-07-24T06:56:40;97402.97;;;26.56;53.35
3260;BME280;68938;48.150;14.004;2023-07-24T06:59:07;97394.25;;;26.63;52.33
3260;BME280;68938;48.150;14.004;2023-07-24T07:01:35;97382.25;;;26.69;53.02
3260;BME280;68938;48.150;14.004;2023-07-24T07:04:03;97367.75;;;26.73;52.87
3260;BME280;68938;48.150;14.004;2023-07-24T07:06:32;97356.09;;;26.76;52.16
3260;BME280;68938;48.150;14.004;2023-07-24T07:09:01;97367.09;;;26.87;53.84
3260;BME280;68938;48.150;14.004;2023-07-24T07:11:30;97371.97;;;27.07;53.49
3260;BME280;68938;48.150;14.004;2023-07-24T07:14:01;97385.78;;;27.25;51.14
3260;BME280;68938;48.150;14.004;2023-07-24T07:16:28;97377.66;;;27.43;51.14
3260;BME280;68938;48.150;14.004;2023-07-24T07:18:56;97387.59;;;27.64;49.51
3260;BME280;68938;48.150;14.004;2023-07-24T07:21:23;97375.34;;;27.79;47.75
3260;BME280;68938;48.150;14.004;2023-07-24T07:23:51;97361.94;;;27.89;47.06
3260;BME280;68938;48.150;14.004;2023-07-24T07:26:19;97369.09;;;28.03;47.54
3260;BME280;68938;48.150;14.004;2023-07-24T07:28:47;97369.19;;;28.18;46.60
3260;BME280;68938;48.150;14.004;2023-07-24T07:31:14;97366.72;;;28.17;45.66
3260;BME280;68938;48.150;14.004;2023-07-24T07:33:41;97358.09;;;28.23;44.53
3260;BME280;68938;48.150;14.004;2023-07-24T07:36:08;97362.22;;;28.48;44.47
3260;BME280;68938;48.150;14.004;2023-07-24T07:38:36;97363.59;;;28.59;43.86
3260;BME280;68938;48.150;14.004;2023-07-24T07:41:06;97359.00;;;28.76;43.41
3260;BME280;68938;48.150;14.004;2023-07-24T07:43:33;97346.00;;;28.89;44.60
3260;BME280;68938;48.150;14.004;2023-07-24T07:46:01;97332.16;;;29.02;43.35
3260;BME280;68938;48.150;14.004;2023-07-24T07:48:30;97328.16;;;29.21;44.00
3260;BME280;68938;48.150;14.004;2023-07-24T07:50:58;97327.31;;;29.35;42.56
3260;BME280;68938;48.150;14.004;2023-07-24T07:53:27;97322.84;;;29.50;44.05
3260;BME280;68938;48.150;14.004;2023-07-24T07:55:58;97325.28;;;29.67;43.55
3260;BME280;68938;48.150;14.004;2023-07-24T07:58:27;97308.03;;;29.71;41.94
3260;BME280;68938;48.150;14.004;2023-07-24T08:00:55;97312.09;;;29.88;43.33
3260;BME280;68938;48.150;14.004;2023-07-24T08:03:23;97308.94;;;29.99;43.17
3260;BME280;68938;48.150;14.004;2023-07-24T08:05:50;97312.19;;;30.02;40.89
3260;BME280;68938;48.150;14.004;2023-07-24T08:08:17;97298.47;;;30.13;42.71
3260;BME280;68938;48.150;14.004;2023-07-24T08:10:44;97297.03;;;30.32;41.21
3260;BME280;68938;48.150;14.004;2023-07-24T08:13:12;97292.38;;;30.34;40.39
3260;BME280;68938;48.150;14.004;2023-07-24T08:15:39;97281.81;;;30.40;41.37
3260;BME280;68938;48.150;14.004;2023-07-24T08:18:06;97271.19;;;30.34;40.07
3260;BME280;68938;48.150;14.004;2023-07-24T08:20:37;97273.78;;;30.27;40.12
3260;BME280;68938;48.150;14.004;2023-07-24T08:23:04;97268.16;;;30.37;40.30
3260;BME280;68938;48.150;14.004;2023-07-24T08:25:32;97268.44;;;30.49;41.27
3260;BME280;68938;48.150;14.004;2023-07-24T08:27:59;97265.41;;;30.52;41.02
3260;BME280;68938;48.150;14.004;2023-07-24T08:30:34;97261.19;;;30.57;39.39
3260;BME280;68938;48.150;14.004;2023-07-24T08:33:02;97256.91;;;30.63;39.36
3260;BME280;68938;48.150;14.004;2023-07-24T08:35:30;97241.03;;;30.63;39.16
3260;BME280;68938;48.150;14.004;2023-07-24T08:37:57;97244.78;;;30.75;40.09
3260;BME280;68938;48.150;14.004;2023-07-24T08:40:26;97254.41;;;30.83;40.46
3260;BME280;68938;48.150;14.004;2023-07-24T08:42:54;97244.91;;;30.95;39.64
3260;BME280;68938;48.150;14.004;2023-07-24T08:45:23;97238.84;;;31.08;38.92
3260;BME280;68938;48.150;14.004;2023-07-24T08:47:50;97237.81;;;31.09;38.94
3260;BME280;68938;48.150;14.004;2023-07-24T08:50:18;97237.66;;;31.24;38.95
3260;BME280;68938;48.150;14.004;2023-07-24T08:52:47;97233.25;;;31.37;38.04
3260;BME280;68938;48.150;14.004;2023-07-24T08:55:15;97231.66;;;31.50;38.74
3260;BME280;68938;48.150;14.004;2023-07-24T08:57:42;97225.31;;;31.44;37.96
3260;BME280;68938;48.150;14.004;2023-07-24T09:00:09;97219.69;;;31.06;37.96
3260;BME280;68938;48.150;14.004;2023-07-24T09:02:37;97212.00;;;31.31;39.05
3260;BME280;68938;48.150;14.004;2023-07-24T09:05:04;97210.03;;;31.46;39.23
3260;BME280;68938;48.150;14.004;2023-07-24T09:07:32;97200.69;;;31.63;38.21
3260;BME280;68938;48.150;14.004;2023-07-24T09:10:02;97206.00;;;31.83;37.19
3260;BME280;68938;48.150;14.004;2023-07-24T09:12:29;97195.41;;;31.97;37.87
3260;BME280;68938;48.150;14.004;2023-07-24T09:15:03;97196.00;;;32.05;38.10
3260;BME280;68938;48.150;14.004;2023-07-24T09:17:33;97192.94;;;32.22;37.68
3260;BME280;68938;48.150;14.004;2023-07-24T09:20:02;97194.56;;;32.29;36.71
3260;BME280;68938;48.150;14.004;2023-07-24T09:22:31;97189.88;;;32.25;36.60
3260;BME280;68938;48.150;14.004;2023-07-24T09:25:00;97188.03;;;32.32;36.69
3260;BME280;68938;48.150;14.004;2023-07-24T09:27:29;97191.47;;;32.39;36.87
3260;BME280;68938;48.150;14.004;2023-07-24T09:29:58;97190.28;;;32.28;36.50
3260;BME280;68938;48.150;14.004;2023-07-24T09:32:27;97190.66;;;32.32;35.61
3260;BME280;68938;48.150;14.004;2023-07-24T09:34:55;97192.28;;;32.40;35.47
3260;BME280;68938;48.150;14.004;2023-07-24T09:37:40;97190.03;;;32.56;36.91
3260;BME280;68938;48.150;14.004;2023-07-24T09:40:09;97194.09;;;32.66;35.85
3260;BME280;68938;48.150;14.004;2023-07-24T09:42:39;97186.94;;;32.66;35.77
3260;BME280;68938;48.150;14.004;2023-07-24T09:45:27;97172.19;;;32.70;35.25
3260;BME280;68938;48.150;14.004;2023-07-24T09:47:54;97166.47;;;32.73;36.10
3260;BME280;68938;48.150;14.004;2023-07-24T09:50:31;97159.50;;;32.79;35.37
3260;BME280;68938;48.150;14.004;2023-07-24T09:53:00;97155.97;;;32.85;34.88
3260;BME280;68938;48.150;14.004;2023-07-24T09:55:31;97142.50;;;32.87;36.21
3260;BME280;68938;48.150;14.004;2023-07-24T09:58:07;97144.75;;;32.96;34.83
3260;BME280;68938;48.150;14.004;2023-07-24T10:00:35;97148.19;;;33.03;35.23
3260;BME280;68938;48.150;14.004;2023-07-24T10:03:03;97145.81;;;33.20;34.92
3260;BME280;68938;48.150;14.004;2023-07-24T10:05:30;97148.94;;;33.42;34.93
3260;BME280;68938;48.150;14.004;2023-07-24T10:07:59;97148.00;;;33.62;35.14
3260;BME280;68938;48.150;14.004;2023-07-24T10:10:27;97155.50;;;33.71;33.31
3260;BME280;68938;48.150;14.004;2023-07-24T10:12:55;97158.13;;;33.78;33.53
3260;BME280;68938;48.150;14.004;2023-07-24T10:15:22;97168.19;;;33.94;33.69
3260;BME280;68938;48.150;14.004;2023-07-24T10:17:50;97188.75;;;34.12;32.96
3260;BME280;68938;48.150;14.004;2023-07-24T10:23:04;97185.13;;;34.07;33.71
3260;BME280;68938;48.150;14.004;2023-07-24T10:25:33;97179.88;;;33.93;33.72
3260;BME280;68938;48.150;14.004;2023-07-24T10:28:05;97179.25;;;33.91;34.38
3260;BME280;68938;48.150;14.004;2023-07-24T10:30:36;97180.69;;;33.94;35.71
3260;BME280;68938;48.150;14.004;2023-07-24T10:33:10;97179.13;;;33.86;34.38
3260;BME280;68938;48.150;14.004;2023-07-24T10:35:44;97187.72;;;33.57;34.95
3260;BME280;68938;48.150;14.004;2023-07-24T10:38:16;97182.16;;;33.26;33.78
3260;BME280;68938;48.150;14.004;2023-07-24T10:40:47;97185.94;;;33.12;35.00
3260;BME280;68938;48.150;14.004;2023-07-24T10:43:18;97189.50;;;32.99;36.26
3260;BME280;68938;48.150;14.004;2023-07-24T10:45:50;97190.06;;;33.01;35.50
3260;BME280;68938;48.150;14.004;2023-07-24T10:48:25;97193.78;;;33.00;35.42
3260;BME280;68938;48.150;14.004;2023-07-24T10:50:52;97183.97;;;32.88;34.94
3260;BME280;68938;48.150;14.004;2023-07-24T10:53:23;97195.06;;;32.78;34.30
3260;BME280;68938;48.150;14.004;2023-07-24T10:55:51;97199.44;;;32.52;35.18
3260;BME280;68938;48.150;14.004;2023-07-24T10:58:24;97202.34;;;32.11;36.30
3260;BME280;68938;48.150;14.004;2023-07-24T11:00:52;97187.66;;;32.08;36.21
3260;BME280;68938;48.150;14.004;2023-07-24T11:03:19;97199.63;;;31.51;37.52
3260;BME280;68938;48.150;14.004;2023-07-24T11:05:47;97190.66;;;31.66;36.94
3260;BME280;68938;48.150;14.004;2023-07-24T11:08:18;97190.50;;;31.74;36.24
3260;BME280;68938;48.150;14.004;2023-07-24T11:10:48;97183.56;;;31.99;36.51
3260;BME280;68938;48.150;14.004;2023-07-24T11:13:24;97177.63;;;32.17;36.37
3260;BME280;68938;48.150;14.004;2023-07-24T11:15:53;97186.56;;;32.36;35.39
3260;BME280;68938;48.150;14.004;2023-07-24T11:18:22;97190.44;;;32.40;35.26
3260;BME280;68938;48.150;14.004;2023-07-24T11:20:53;97198.03;;;32.43;35.14
3260;BME280;68938;48.150;14.004;2023-07-24T11:23:25;97201.50;;;32.24;34.49
3260;BME280;68938;48.150;14.004;2023-07-24T11:25:54;97203.75;;;32.20;35.00
3260;BME280;68938;48.150;14.004;2023-07-24T11:28:21;97205.81;;;32.12;34.42
3260;BME280;68938;48.150;14.004;2023-07-24T11:30:49;97200.69;;;32.23;33.38
3260;BME280;68938;48.150;14.004;2023-07-24T11:33:16;97199.69;;;32.11;33.48
3260;BME280;68938;48.150;14.004;2023-07-24T11:35:47;97180.47;;;32.29;34.14
3260;BME280;68938;48.150;14.004;2023-07-24T11:38:16;97171.91;;;32.14;33.94
3260;BME280;68938;48.150;14.004;2023-07-24T11:40:44;97167.63;;;32.13;33.73
3260;BME280;68938;48.150;14.004;2023-07-24T11:43:18;97166.00;;;32.18;34.15
3260;BME280;68938;48.150;14.004;2023-07-24T11:45:50;97147.81;;;32.15;33.83
3260;BME280;68938;48.150;14.004;2023-07-24T11:48:20;97140.41;;;32.37;33.24
3260;BME280;68938;48.150;14.004;2023-07-24T11:50:49;97141.66;;;32.35;33.89
3260;BME280;68938;48.150;14.004;2023-07-24T11:53:29;97133.88;;;32.46;33.39
3260;BME280;68938;48.150;14.004;2023-07-24T11:55:59;97124.06;;;32.47;32.92
3260;BME280;68938;48.150;14.004;2023-07-24T11:58:29;97128.53;;;32.60;32.93
3260;BME280;68938;48.150;14.004;2023-07-24T12:00:57;97135.47;;;32.61;31.89
3260;BME280;68938;48.150;14.004;2023-07-24T12:03:26;97132.00;;;32.60;32.28
3260;BME280;68938;48.150;14.004;2023-07-24T12:05:54;97133.66;;;32.48;31.14
3260;BME280;68938;48.150;14.004;2023-07-24T12:08:33;97135.72;;;32.39;31.66
3260;BME280;68938;48.150;14.004;2023-07-24T12:11:02;97134.16;;;32.18;32.59
3260;BME280;68938;48.150;14.004;2023-07-24T12:13:30;97124.19;;;32.07;31.75
3260;BME280;68938;48.150;14.004;2023-07-24T12:15:56;97124.78;;;32.09;32.33
3260;BME280;68938;48.150;14.004;2023-07-24T12:18:25;97115.38;;;32.13;31.92
3260;BME280;68938;48.150;14.004;2023-07-24T12:20:52;97109.03;;;32.21;31.90
3260;BME280;68938;48.150;14.004;2023-07-24T12:23:19;97107.38;;;32.26;31.86
3260;BME280;68938;48.150;14.004;2023-07-24T12:25:47;97115.31;;;32.33;31.49
3260;BME280;68938;48.150;14.004;2023-07-24T12:28:14;97123.25;;;32.40;31.18
3260;BME280;68938;48.150;14.004;2023-07-24T12:30:44;97127.75;;;32.46;30.18
3260;BME280;68938;48.150;14.004;2023-07-24T12:33:11;97111.22;;;32.30;31.25
3260;BME280;68938;48.150;14.004;2023-07-24T12:35:41;97100.03;;;32.28;31.87
3260;BME280;68938;48.150;14.004;2023-07-24T12:38:08;97095.75;;;32.21;31.62
3260;BME280;68938;48.150;14.004;2023-07-24T12:42:20;97098.31;;;32.54;30.75
3260;BME280;68938;48.150;14.004;2023-07-24T12:44:47;97098.66;;;32.64;30.57
3260;BME280;68938;48.150;14.004;2023-07-24T12:47:15;97094.00;;;32.60;30.81
3260;BME280;68938;48.150;14.004;2023-07-24T12:49:47;97096.94;;;32.83;30.73
3260;BME280;68938;48.150;14.004;2023-07-24T12:52:16;97082.97;;;33.01;30.41
3260;BME280;68938;48.150;14.004;2023-07-24T12:54:46;97074.69;;;33.16;29.68
3260;BME280;68938;48.150;14.004;2023-07-24T12:57:27;97062.75;;;33.25;29.99
3260;BME280;68938;48.150;14.004;2023-07-24T12:59:54;97039.16;;;33.35;29.95
3260;BME280;68938;48.150;14.004;2023-07-24T13:02:23;97030.81;;;33.32;29.08
3260;BME280;68938;48.150;14.004;2023-07-24T13:04:50;97040.03;;;33.29;30.01
3260;BME280;68938;48.150;14.004;2023-07-24T13:07:18;97035.13;;;33.26;29.01
3260;BME280;68938;48.150;14.004;2023-07-24T13:09:47;97038.13;;;33.36;29.51
3260;BME280;68938;48.150;14.004;2023-07-24T13:12:14;97025.94;;;33.47;29.59
3260;BME280;68938;48.150;14.004;2023-07-24T13:14:42;97023.13;;;33.67;29.75
3260;BME280;68938;48.150;14.004;2023-07-24T13:17:09;97008.53;;;33.76;29.19